Time;durP1;ratioP1;P1;durP2;ratioP2;P2;SDS_P1;SDS_P2;PMS_P1;PMS_P2;Temp;Humidity;BMP_temperature;BMP_pressure;BME280_temperature;BME280_humidity;BME280_pressure;Samples;Min_cycle;Max_cycle;Signal;HPM_P1;HPM_P2
2023/09/05 00:00:10;;;;;;;8.43;4.47;;;;;;;15.86;93.79;101250.25;5067737;28;20040;-75
2023/09/05 00:02:39;;;;;;;5.85;4.85;;;;;;;15.84;93.31;101235.47;5068352;28;20047;-75
2023/09/05 00:05:07;;;;;;;8.30;4.22;;;;;;;15.88;93.40;101244.97;5069506;28;20029;-75
2023/09/05 00:07:35;;;;;;;6.15;4.18;;;;;;;15.86;93.21;101231.91;5097536;28;20044;-74
2023/09/05 00:10:03;;;;;;;6.72;4.93;;;;;;;15.89;93.67;101233.63;5107900;28;20104;-75
2023/09/05 00:12:29;;;;;;;9.57;4.28;;;;;;;15.94;92.93;101241.41;5106238;28;20031;-75
2023/09/05 00:14:54;;;;;;;11.48;4.25;;;;;;;15.94;93.30;101237.03;5107225;28;20028;-75
2023/09/05 00:17:20;;;;;;;5.35;3.95;;;;;;;15.95;93.30;101233.53;5107175;28;20020;-74
2023/09/05 00:19:45;;;;;;;8.15;4.07;;;;;;;15.95;93.50;101238.78;5107251;28;20453;-75
2023/09/05 00:22:11;;;;;;;7.47;3.53;;;;;;;15.96;93.16;101237.00;5106956;28;20015;-74
2023/09/05 00:24:38;;;;;;;10.63;4.65;;;;;;;15.94;92.96;101228.31;5105834;28;20089;-75
2023/09/05 00:27:14;;;;;;;7.25;4.30;;;;;;;15.90;93.15;101222.25;5105516;28;20024;-74
2023/09/05 00:29:41;;;;;;;8.93;4.53;;;;;;;15.86;92.69;101217.97;5105817;28;20023;-74
2023/09/05 00:32:07;;;;;;;7.75;4.55;;;;;;;15.82;92.91;101219.78;5107150;28;20028;-74
2023/09/05 00:34:34;;;;;;;8.65;4.05;;;;;;;15.79;93.21;101222.47;5106110;28;20092;-74
2023/09/05 00:37:01;;;;;;;6.82;5.15;;;;;;;15.74;93.05;101219.91;5106717;28;20039;-74
2023/09/05 00:39:27;;;;;;;9.38;4.40;;;;;;;15.57;93.04;101186.19;5106973;28;20085;-74
2023/09/05 00:41:55;;;;;;;9.40;3.22;;;;;;;15.63;93.36;101198.28;5105254;28;20016;-74
2023/09/05 00:44:20;;;;;;;10.10;4.32;;;;;;;15.63;93.80;101211.38;5106575;28;20043;-75
2023/09/05 00:46:46;;;;;;;6.13;3.97;;;;;;;15.56;93.92;101207.16;5106684;28;20460;-75
2023/09/05 00:49:15;;;;;;;8.95;4.50;;;;;;;15.55;93.61;101206.28;5106351;28;20024;-74
2023/09/05 00:51:50;;;;;;;8.30;5.03;;;;;;;15.54;93.87;101201.94;5106207;28;20016;-73
2023/09/05 00:54:16;;;;;;;4.78;3.40;;;;;;;15.54;93.69;101204.56;5105361;28;20024;-74
2023/09/05 00:56:43;;;;;;;4.90;3.88;;;;;;;15.54;93.94;101199.31;5105759;28;20020;-74
2023/09/05 00:59:09;;;;;;;9.23;4.15;;;;;;;15.53;93.83;101199.34;5106285;28;20033;-74
2023/09/05 01:01:35;;;;;;;9.02;3.78;;;;;;;15.51;93.79;101195.88;5106192;28;20056;-75
2023/09/05 01:04:00;;;;;;;5.47;3.58;;;;;;;15.49;93.92;101195.91;5106431;28;20035;-74
2023/09/05 01:06:46;;;;;;;12.82;4.43;;;;;;;15.48;93.95;101184.56;5105994;28;20032;-75
2023/09/05 01:09:20;;;;;;;6.78;3.53;;;;;;;15.47;94.25;101189.84;5106275;28;20451;-75
2023/09/05 01:11:47;;;;;;;7.03;4.40;;;;;;;15.44;94.34;101192.50;5106086;28;20024;-75
2023/09/05 01:14:14;;;;;;;9.13;3.70;;;;;;;15.47;94.50;101200.28;5105994;28;20030;-75
2023/09/05 01:16:43;;;;;;;4.97;3.63;;;;;;;15.39;94.55;101178.63;5106269;28;20078;-74
2023/09/05 01:19:12;;;;;;;6.53;4.13;;;;;;;15.47;94.95;101195.06;5104960;28;20020;-74
2023/09/05 01:21:43;;;;;;;4.70;3.58;;;;;;;15.48;94.49;101195.03;5104380;28;20119;-74
2023/09/05 01:24:22;;;;;;;3.35;2.90;;;;;;;15.44;94.84;101190.75;5104661;28;20104;-75
2023/09/05 01:26:52;;;;;;;4.82;3.45;;;;;;;15.45;94.79;101202.06;5106075;28;20051;-75
2023/09/05 01:29:25;;;;;;;5.47;3.85;;;;;;;15.33;94.50;101184.81;5105791;28;20016;-75
2023/09/05 01:31:52;;;;;;;6.85;4.32;;;;;;;15.45;94.61;101196.84;5104836;28;20031;-74
2023/09/05 01:34:17;;;;;;;6.72;3.45;;;;;;;15.43;94.19;101183.78;5105919;28;20054;-75
2023/09/05 01:36:43;;;;;;;3.70;3.17;;;;;;;15.43;94.70;101182.94;5104234;28;20024;-75
2023/09/05 01:39:08;;;;;;;8.15;2.95;;;;;;;15.44;94.65;101189.88;5105666;28;20024;-75
2023/09/05 01:41:34;;;;;;;7.13;3.45;;;;;;;15.44;94.39;101192.50;5105855;28;20103;-75
2023/09/05 01:43:59;;;;;;;5.88;3.58;;;;;;;15.45;94.56;101186.38;5105669;28;20028;-74
2023/09/05 01:46:25;;;;;;;9.43;3.65;;;;;;;15.40;94.79;101183.81;5104555;28;20044;-75
2023/09/05 01:48:51;;;;;;;7.10;3.30;;;;;;;15.44;94.49;101195.13;5105778;28;20085;-74
2023/09/05 01:51:16;;;;;;;5.32;3.38;;;;;;;15.42;94.86;101181.19;5105508;28;20095;-75
2023/09/05 01:53:41;;;;;;;6.38;3.70;;;;;;;15.44;93.96;101179.41;5105578;28;20016;-75
2023/09/05 01:56:07;;;;;;;5.40;3.58;;;;;;;15.43;94.50;101190.78;5105529;28;20093;-75
2023/09/05 01:58:32;;;;;;;9.40;3.30;;;;;;;15.44;94.24;101185.53;5105237;28;20039;-73
2023/09/05 02:01:02;;;;;;;6.35;3.33;;;;;;;15.43;94.62;101175.09;5104305;28;20067;-73
2023/09/05 02:03:28;;;;;;;6.35;4.13;;;;;;;15.43;94.42;101178.53;5104163;28;20016;-72
2023/09/05 02:05:53;;;;;;;10.05;3.83;;;;;;;15.45;94.16;101194.22;5104906;28;20024;-73
2023/09/05 02:08:19;;;;;;;10.73;3.40;;;;;;;15.41;93.97;101190.81;5105180;28;20114;-73
2023/09/05 02:10:45;;;;;;;3.97;2.35;;;;;;;15.40;93.78;101182.97;5105044;28;20051;-73
2023/09/05 02:13:10;;;;;;;3.85;3.17;;;;;;;15.40;94.08;101196.06;5105220;28;20016;-72
2023/09/05 02:15:36;;;;;;;8.95;4.53;;;;;;;15.38;94.33;101195.22;5105262;28;20024;-73
2023/09/05 02:18:03;;;;;;;4.20;2.95;;;;;;;15.39;94.17;101186.47;5104919;28;20152;-73
2023/09/05 02:20:28;;;;;;;6.90;3.28;;;;;;;15.40;94.13;101182.97;5104747;28;20027;-72
2023/09/05 02:22:54;;;;;;;6.78;3.55;;;;;;;15.40;94.16;101183.81;5105014;28;20024;-73
2023/09/05 02:25:20;;;;;;;8.45;3.30;;;;;;;15.40;93.85;101177.75;5104988;28;20521;-73
2023/09/05 02:27:45;;;;;;;3.20;2.58;;;;;;;15.38;94.12;101179.50;5104835;28;20043;-73
2023/09/05 02:30:11;;;;;;;3.65;3.20;;;;;;;15.35;93.96;101176.06;5105077;28;20016;-73
2023/09/05 02:32:36;;;;;;;6.55;3.22;;;;;;;15.32;93.90;101181.34;5104864;28;20456;-73
2023/09/05 02:35:03;;;;;;;12.57;4.13;;;;;;;15.36;93.87;101190.88;5104987;28;20023;-74
2023/09/05 02:37:29;;;;;;;4.47;3.70;;;;;;;15.32;93.81;101191.81;5104785;28;20020;-74
2023/09/05 02:39:54;;;;;;;7.18;4.55;;;;;;;15.30;93.34;101185.75;5104946;28;20031;-74
2023/09/05 02:42:19;;;;;;;8.40;3.47;;;;;;;15.30;93.58;101196.22;5104882;28;20020;-74
2023/09/05 02:44:45;;;;;;;12.98;4.70;;;;;;;15.28;93.76;101186.63;5104945;28;20027;-74
2023/09/05 02:47:10;;;;;;;6.47;4.88;;;;;;;15.31;94.03;101190.09;5104659;28;20027;-74
2023/09/05 02:49:35;;;;;;;11.55;4.47;;;;;;;15.27;93.90;101180.53;5105036;28;20083;-74
2023/09/05 02:52:01;;;;;;;7.75;4.93;;;;;;;15.28;93.90;101177.06;5104685;28;20031;-74
2023/09/05 02:54:29;;;;;;;8.50;4.80;;;;;;;15.29;94.16;101181.38;5104753;28;20020;-74
2023/09/05 02:56:55;;;;;;;16.50;5.65;;;;;;;15.26;93.76;101170.97;5103453;28;20063;-74
2023/09/05 02:59:20;;;;;;;29.25;6.30;;;;;;;15.24;94.13;101157.91;5103426;28;20024;-74
2023/09/05 03:01:46;;;;;;;6.03;4.22;;;;;;;15.27;94.34;101167.47;5104558;28;20020;-74
2023/09/05 03:04:12;;;;;;;7.82;4.47;;;;;;;15.27;94.10;101177.91;5104654;28;20020;-74
2023/09/05 03:06:37;;;;;;;11.38;4.55;;;;;;;15.26;94.17;101159.63;5103940;28;20052;-73
2023/09/05 03:09:03;;;;;;;18.42;5.25;;;;;;;15.22;94.35;101164.06;5103251;28;20054;-74
2023/09/05 03:11:29;;;;;;;8.88;4.88;;;;;;;15.22;94.48;101166.69;5103248;28;20495;-74
2023/09/05 03:13:54;;;;;;;5.07;3.85;;;;;;;15.20;94.44;101169.31;5104809;28;20062;-73
2023/09/05 03:16:21;;;;;;;8.50;5.43;;;;;;;15.23;94.74;101173.63;5104582;28;20484;-73
2023/09/05 03:18:46;;;;;;;6.82;4.63;;;;;;;15.13;94.50;101159.00;5104372;28;20020;-74
2023/09/05 03:21:12;;;;;;;9.45;5.22;;;;;;;15.17;94.57;101160.66;5107027;28;20024;-74
2023/09/05 03:23:37;;;;;;;5.05;4.53;;;;;;;15.18;94.54;101159.75;5106858;28;20031;-74
2023/09/05 03:26:02;;;;;;;8.55;5.13;;;;;;;15.19;94.97;101162.34;5108627;28;20027;-73
2023/09/05 03:28:59;;;;;;;8.23;4.90;;;;;;;15.21;95.03;101164.94;5108100;28;20083;-74
2023/09/05 03:31:28;;;;;;;7.63;4.32;;;;;;;15.17;94.82;101160.66;5091827;28;20039;-74
2023/09/05 03:33:54;;;;;;;6.97;4.65;;;;;;;15.19;94.93;101159.72;5108234;28;20020;-73
2023/09/05 03:36:19;;;;;;;11.30;5.60;;;;;;;15.19;95.20;101169.34;5108267;28;20070;-74
2023/09/05 03:38:45;;;;;;;10.95;5.35;;;;;;;15.22;94.94;101170.16;5108617;28;20024;-73
2023/09/05 03:41:10;;;;;;;14.93;4.93;;;;;;;15.20;94.79;101166.72;5107137;28;20023;-74
2023/09/05 03:43:35;;;;;;;9.23;4.90;;;;;;;15.19;94.69;101159.72;5108205;28;20155;-74
2023/09/05 03:46:01;;;;;;;6.88;4.78;;;;;;;15.16;94.62;101148.47;5107696;28;20081;-73
2023/09/05 03:48:26;;;;;;;9.70;4.65;;;;;;;15.16;94.76;101157.16;5107725;28;20031;-74
2023/09/05 03:50:51;;;;;;;7.18;5.88;;;;;;;15.16;94.81;101166.78;5107511;28;20032;-74
2023/09/05 03:53:17;;;;;;;18.83;5.30;;;;;;;15.12;95.24;101158.13;5107976;28;20095;-74
2023/09/05 03:55:42;;;;;;;12.85;5.07;;;;;;;15.16;95.35;101164.16;5106384;28;20016;-74
2023/09/05 03:58:08;;;;;;;8.18;5.68;;;;;;;15.14;95.54;101161.59;5107370;28;20058;-74
2023/09/05 04:00:34;;;;;;;10.10;5.60;;;;;;;15.17;95.94;101155.44;5106243;28;20405;-72
2023/09/05 04:03:02;;;;;;;10.65;5.35;;;;;;;15.24;96.20;101160.53;5107453;28;20024;-73
2023/09/05 04:05:28;;;;;;;11.07;6.90;;;;;;;15.31;96.60;101149.97;5107826;28;20150;-73
2023/09/05 04:07:53;;;;;;;17.17;6.75;;;;;;;15.41;96.60;101143.72;5107064;28;20111;-73
2023/09/05 04:10:19;;;;;;;9.02;6.93;;;;;;;15.52;96.32;101156.59;5107925;28;20046;-74
2023/09/05 04:12:44;;;;;;;21.85;7.28;;;;;;;15.60;96.43;101153.84;5107657;28;20043;-73
2023/09/05 04:15:09;;;;;;;11.57;7.72;;;;;;;15.70;96.50;101160.63;5107780;28;20025;-74
2023/09/05 04:17:36;;;;;;;13.85;8.38;;;;;;;15.79;96.22;101154.38;5107219;28;20027;-73
2023/09/05 04:20:03;;;;;;;8.93;7.28;;;;;;;15.83;96.22;101161.28;5106123;28;20031;-73
2023/09/05 04:22:28;;;;;;;16.20;6.97;;;;;;;15.90;96.12;101161.16;5107195;28;20047;-73
2023/09/05 04:24:55;;;;;;;9.82;8.07;;;;;;;15.91;96.31;101155.06;5106005;28;20225;-72
2023/09/05 04:27:21;;;;;;;10.15;6.93;;;;;;;15.98;96.14;101164.53;5107247;28;20027;-73
2023/09/05 04:29:51;;;;;;;14.77;7.13;;;;;;;16.04;96.16;101168.81;5107186;28;20043;-74
2023/09/05 04:32:19;;;;;;;10.55;7.93;;;;;;;16.05;95.97;101160.94;5106130;28;20012;-75
2023/09/05 04:34:44;;;;;;;15.27;8.32;;;;;;;16.10;95.69;101169.53;5107282;28;20035;-76
2023/09/05 04:37:10;;;;;;;13.23;8.85;;;;;;;16.12;95.39;101172.13;5107034;28;20028;-77
2023/09/05 04:39:37;;;;;;;12.88;7.57;;;;;;;16.10;95.28;101164.31;5107249;28;20073;-77
2023/09/05 04:42:03;;;;;;;12.35;8.13;;;;;;;16.12;95.36;101158.19;5107291;28;20032;-78
2023/09/05 04:44:28;;;;;;;17.20;8.35;;;;;;;16.12;94.72;101159.03;5107515;28;20086;-77
2023/09/05 04:47:20;;;;;;;11.32;8.40;;;;;;;16.15;94.82;101160.75;5105459;28;20043;-72
2023/09/05 04:49:46;;;;;;;;;;;;;;;16.18;94.42;101166.78;5107510;28;20039;-76
2023/09/05 04:52:12;;;;;;;9.68;7.93;;;;;;;16.14;94.53;101164.25;5107017;28;20319;-77
2023/09/05 04:54:37;;;;;;;14.65;8.05;;;;;;;16.15;94.54;101161.59;5107018;28;20027;-77
2023/09/05 04:57:03;;;;;;;14.20;8.88;;;;;;;16.17;94.01;101159.81;5105850;28;20051;-77
2023/09/05 04:59:28;;;;;;;16.35;8.10;;;;;;;16.16;93.97;101149.38;5106978;28;20024;-77
2023/09/05 05:01:54;;;;;;;9.80;8.07;;;;;;;16.21;94.04;101163.25;5106744;28;20035;-73
2023/09/05 05:04:20;;;;;;;14.68;9.05;;;;;;;16.22;93.75;101159.72;5106648;28;20030;-71
2023/09/05 05:06:45;;;;;;;14.15;8.85;;;;;;;16.26;93.61;101158.78;5104931;28;20068;-70
2023/09/05 05:09:11;;;;;;;12.52;9.02;;;;;;;16.30;93.33;101155.19;5106516;28;20077;-69
2023/09/05 05:11:36;;;;;;;16.17;9.63;;;;;;;16.35;93.25;101157.72;5105305;28;20050;-71
2023/09/05 05:14:02;;;;;;;16.27;8.98;;;;;;;16.43;93.26;101160.19;5104944;28;20016;-76
2023/09/05 05:16:28;;;;;;;15.10;9.20;;;;;;;16.48;92.94;101158.31;5106687;28;20054;-73
2023/09/05 05:18:53;;;;;;;16.45;9.30;;;;;;;16.46;92.06;101153.13;5106246;28;20495;-71
2023/09/05 05:21:18;;;;;;;12.10;9.63;;;;;;;16.49;91.89;101152.19;5104733;28;20020;-72
2023/09/05 05:23:44;;;;;;;15.63;9.52;;;;;;;16.48;91.76;101146.06;5105960;28;20020;-71
2023/09/05 05:26:09;;;;;;;20.13;9.25;;;;;;;16.52;91.85;101133.78;5105988;28;20027;-74
2023/09/05 05:28:34;;;;;;;12.38;9.00;;;;;;;16.59;91.65;101151.09;5105797;28;20031;-69
2023/09/05 05:31:00;;;;;;;20.88;5.47;;;;;;;16.63;91.62;101140.56;5106138;28;20145;-69
2023/09/05 05:33:25;;;;;;;20.10;9.38;;;;;;;16.65;91.45;101150.09;5104758;28;20481;-70
2023/09/05 05:35:58;;;;;;;13.73;9.20;;;;;;;16.73;91.05;101155.16;5105413;28;20050;-69
2023/09/05 05:38:23;;;;;;;15.05;9.90;;;;;;;16.79;91.18;101162.88;5105825;28;20035;-71
2023/09/05 05:40:48;;;;;;;10.90;8.70;;;;;;;16.83;90.79;101167.19;5105852;28;20024;-71
2023/09/05 05:43:14;;;;;;;14.85;9.35;;;;;;;16.82;90.68;101152.31;5105400;28;20035;-71
2023/09/05 05:45:39;;;;;;;11.60;8.23;;;;;;;16.95;90.50;101163.41;5104640;28;20496;-72
2023/09/05 05:48:07;;;;;;;12.88;8.43;;;;;;;16.97;90.45;101151.13;5107068;28;20020;-71
2023/09/05 05:50:33;;;;;;;19.40;9.70;;;;;;;17.06;90.23;101157.06;5110150;28;20028;-71
2023/09/05 05:52:58;;;;;;;12.85;8.93;;;;;;;17.14;90.02;101146.41;5110400;28;20020;-70
2023/09/05 05:55:23;;;;;;;17.52;10.20;;;;;;;17.16;88.85;101144.59;5111237;28;20024;-70
2023/09/05 05:57:49;;;;;;;15.20;8.70;;;;;;;17.22;88.85;101144.47;5110584;28;20059;-71
2023/09/05 06:00:14;;;;;;;14.55;8.98;;;;;;;17.24;88.96;101137.41;5109562;28;20091;-71
2023/09/05 06:02:40;;;;;;;14.73;9.85;;;;;;;17.32;88.33;101145.09;5109467;28;20035;-71
2023/09/05 06:05:07;;;;;;;15.48;9.52;;;;;;;17.38;88.59;101144.09;5106822;28;20020;-71
2023/09/05 06:07:33;;;;;;;10.90;8.68;;;;;;;17.38;87.92;101138.84;5105167;28;20116;-70
2023/09/05 06:09:58;;;;;;;15.88;8.80;;;;;;;17.53;88.08;101138.44;5105713;28;20040;-72
2023/09/05 06:12:24;;;;;;;19.33;9.88;;;;;;;17.58;87.28;101147.06;5104258;28;20298;-70
2023/09/05 06:14:49;;;;;;;18.25;9.02;;;;;;;17.67;87.04;101127.56;5105734;28;20024;-71
2023/09/05 06:17:14;;;;;;;10.77;8.52;;;;;;;17.90;87.98;101133.09;5104429;28;20028;-71
2023/09/05 06:19:40;;;;;;;14.93;9.05;;;;;;;18.22;88.14;101131.34;5105243;28;20032;-71
2023/09/05 06:22:05;;;;;;;17.17;8.30;;;;;;;18.49;87.21;101133.19;5105251;28;20024;-71
2023/09/05 06:24:32;;;;;;;21.17;9.65;;;;;;;18.75;85.15;101128.91;5104366;28;20027;-70
2023/09/05 06:26:57;;;;;;;13.82;9.80;;;;;;;18.99;84.92;101122.03;5105305;28;20035;-71
2023/09/05 06:29:22;;;;;;;10.43;8.35;;;;;;;19.24;82.57;101129.13;5105228;28;20020;-71
2023/09/05 06:31:48;;;;;;;17.13;9.35;;;;;;;19.45;82.15;101126.69;5105335;28;20031;-71
2023/09/05 06:34:14;;;;;;;17.23;8.38;;;;;;;19.84;82.61;101137.66;5105444;28;20048;-71
2023/09/05 06:36:40;;;;;;;13.65;9.30;;;;;;;20.13;79.17;101135.75;5103405;28;20058;-71
2023/09/05 06:39:05;;;;;;;10.45;6.88;;;;;;;20.24;78.10;101143.28;5105147;28;20079;-71
2023/09/05 06:41:31;;;;;;;14.80;7.88;;;;;;;20.09;76.04;101149.97;5105535;28;20113;-71
2023/09/05 06:43:56;;;;;;;11.70;8.20;;;;;;;20.08;76.70;101145.63;5105307;28;20024;-72
2023/09/05 06:46:21;;;;;;;10.65;7.28;;;;;;;20.13;76.23;101141.00;5105234;28;20024;-72
2023/09/05 06:48:47;;;;;;;9.15;7.35;;;;;;;20.16;76.38;101131.22;5105134;28;20026;-71
2023/09/05 06:51:12;;;;;;;10.07;7.68;;;;;;;20.23;74.20;101136.25;5105049;28;20023;-71
2023/09/05 06:53:37;;;;;;;8.15;6.82;;;;;;;20.14;73.50;101126.94;5103819;28;20016;-71
2023/09/05 06:56:03;;;;;;;11.65;8.10;;;;;;;20.06;73.19;101143.88;5108050;28;20027;-71
2023/09/05 06:58:29;;;;;;;10.93;7.32;;;;;;;19.96;72.75;101142.47;5109074;28;20020;-71
2023/09/05 07:00:54;;;;;;;9.15;6.95;;;;;;;19.95;74.10;101140.75;5109182;28;20020;-71
2023/09/05 07:03:26;;;;;;;17.90;7.28;;;;;;;20.14;73.24;101143.63;5108959;28;20038;-72
2023/09/05 07:05:53;;;;;;;9.30;6.43;;;;;;;20.12;73.53;101145.44;5109193;28;20365;-71
2023/09/05 07:08:18;;;;;;;9.43;6.78;;;;;;;20.17;73.13;101142.63;5108886;28;20044;-72
2023/09/05 07:10:43;;;;;;;8.75;6.93;;;;;;;20.15;72.88;101144.47;5109013;28;20077;-70
2023/09/05 07:13:09;;;;;;;16.10;7.60;;;;;;;20.04;72.08;101145.72;5109099;28;20027;-71
2023/09/05 07:15:34;;;;;;;11.63;7.65;;;;;;;20.13;71.78;101148.91;5108919;28;20024;-71
2023/09/05 07:18:00;;;;;;;7.15;6.30;;;;;;;20.19;72.48;101146.91;5107517;28;20024;-72
2023/09/05 07:20:25;;;;;;;8.85;6.45;;;;;;;20.26;72.01;101160.75;5108768;28;20024;-71
2023/09/05 07:22:51;;;;;;;8.93;5.97;;;;;;;20.26;71.14;101157.22;5108416;28;20027;-71
2023/09/05 07:25:16;;;;;;;10.35;6.97;;;;;;;20.16;71.71;101140.94;5108741;28;20024;-71
2023/09/05 07:27:41;;;;;;;16.45;6.95;;;;;;;20.24;70.98;101162.56;5108510;28;20016;-71
2023/09/05 07:30:07;;;;;;;10.98;6.88;;;;;;;20.13;71.10;101157.69;5108652;28;20020;-71
2023/09/05 07:32:33;;;;;;;8.93;6.43;;;;;;;19.99;70.96;101159.94;5108632;28;20046;-70
2023/09/05 07:34:58;;;;;;;11.48;7.28;;;;;;;19.77;70.90;101161.59;5108624;28;20032;-72
2023/09/05 07:37:23;;;;;;;10.57;5.22;;;;;;;19.54;71.86;101157.97;5108268;28;20036;-71
2023/09/05 07:39:51;;;;;;;8.23;5.68;;;;;;;19.40;71.97;101154.94;5108372;28;20016;-72
2023/09/05 07:42:17;;;;;;;10.35;5.95;;;;;;;19.25;72.76;101165.06;5106900;28;20020;-70
2023/09/05 07:44:42;;;;;;;8.30;6.22;;;;;;;19.24;73.33;101163.34;5106952;28;20503;-72
2023/09/05 07:47:07;;;;;;;9.18;5.90;;;;;;;19.22;73.21;101164.31;5108386;28;20019;-71
2023/09/05 07:49:37;;;;;;;17.55;7.68;;;;;;;19.17;73.51;101162.69;5108118;28;20026;-71
2023/09/05 07:52:02;;;;;;;9.63;6.60;;;;;;;19.10;73.42;101163.81;5107885;28;20028;-73
2023/09/05 07:54:28;;;;;;;21.13;7.85;;;;;;;19.04;73.95;101163.97;5108092;28;20058;-71
2023/09/05 07:56:53;;;;;;;20.35;6.90;;;;;;;19.06;73.86;101170.91;5108177;28;20027;-71
2023/09/05 07:59:19;;;;;;;10.30;7.03;;;;;;;19.01;74.09;101166.72;5107938;28;20081;-71
2023/09/05 08:01:45;;;;;;;10.30;6.25;;;;;;;19.07;74.55;101167.34;5108101;28;20024;-72
2023/09/05 08:04:10;;;;;;;11.75;7.55;;;;;;;19.24;74.12;101173.88;5108070;28;20031;-71
2023/09/05 08:06:35;;;;;;;8.52;6.60;;;;;;;19.28;73.92;101177.28;5107251;28;20070;-70
2023/09/05 08:09:01;;;;;;;19.75;8.18;;;;;;;19.41;74.07;101180.38;5107806;28;20024;-71
2023/09/05 08:11:26;;;;;;;12.13;6.97;;;;;;;19.43;73.43;101178.53;5107938;28;20020;-70
2023/09/05 08:13:52;;;;;;;11.57;6.72;;;;;;;19.43;73.21;101175.91;5107953;28;20099;-72
2023/09/05 08:16:17;;;;;;;20.63;7.32;;;;;;;19.40;72.82;101178.63;5107982;28;20020;-72
2023/09/05 08:18:42;;;;;;;11.70;6.57;;;;;;;19.50;73.31;101182.69;5107594;28;20016;-71
2023/09/05 08:21:08;;;;;;;12.68;6.55;;;;;;;19.63;73.32;101183.13;5107588;28;20054;-71
2023/09/05 08:23:33;;;;;;;9.75;7.45;;;;;;;19.69;72.76;101176.78;5107023;28;20616;-70
2023/09/05 08:25:59;;;;;;;8.00;6.20;;;;;;;19.84;72.49;101175.38;5105892;28;20028;-71
2023/09/05 08:28:28;;;;;;;13.20;6.85;;;;;;;19.98;72.09;101169.66;5094690;22;20044;-59
2023/09/05 08:30:59;;;;;;;8.38;6.20;;;;;;;20.17;72.45;101175.13;5087268;28;20616;-60
2023/09/05 08:33:26;;;;;;;10.13;6.07;;;;;;;20.31;70.14;101179.03;5087214;28;20029;-63
2023/09/05 08:35:52;;;;;;;12.68;6.22;;;;;;;20.18;69.23;101189.16;5086071;28;20313;-60
2023/09/05 08:38:17;;;;;;;15.05;7.75;;;;;;;20.00;69.85;101194.16;5085577;28;20024;-60
2023/09/05 08:40:45;;;;;;;8.18;6.35;;;;;;;19.86;69.62;101188.50;5087166;28;20024;-61
2023/09/05 08:43:11;;;;;;;14.85;7.55;;;;;;;19.61;70.15;101190.22;5087026;28;20110;-61
2023/09/05 08:45:39;;;;;;;11.23;6.22;;;;;;;19.44;70.75;101191.66;5087239;28;20068;-61
2023/09/05 08:48:05;;;;;;;6.70;5.97;;;;;;;19.49;71.07;101191.50;5086889;28;20016;-59
2023/09/05 08:50:31;;;;;;;9.98;6.15;;;;;;;19.53;71.40;101198.41;5086839;28;20023;-60
2023/09/05 08:53:00;;;;;;;8.70;7.15;;;;;;;19.46;71.23;101199.50;5086449;28;20078;-61
2023/09/05 08:55:26;;;;;;;9.93;6.53;;;;;;;19.39;71.06;101204.09;5086653;28;20039;-60
2023/09/05 08:57:54;;;;;;;14.70;7.82;;;;;;;19.20;71.51;101188.91;5086607;28;20021;-60
2023/09/05 09:00:21;;;;;;;9.82;6.22;;;;;;;19.13;71.90;101197.06;5086922;28;20020;-61
2023/09/05 09:02:47;;;;;;;14.52;7.35;;;;;;;19.09;72.17;101196.28;5086424;28;20028;-60
2023/09/05 09:05:13;;;;;;;8.02;6.28;;;;;;;19.10;72.65;101187.50;5086400;28;20051;-59
2023/09/05 09:07:39;;;;;;;12.07;7.22;;;;;;;19.17;72.80;101188.16;5086335;28;20024;-60
2023/09/05 09:10:20;;;;;;;10.75;7.88;;;;;;;19.35;72.77;101191.06;5086579;28;20028;-60
2023/09/05 09:12:49;;;;;;;10.68;6.68;;;;;;;19.43;72.67;101192.56;5086449;28;20026;-60
2023/09/05 09:15:15;;;;;;;14.95;7.28;;;;;;;19.53;72.75;101193.13;5086257;28;20030;-61
2023/09/05 09:17:41;;;;;;;8.20;6.28;;;;;;;19.59;72.34;101184.13;5085533;28;20383;-60
2023/09/05 09:20:12;;;;;;;7.15;5.80;;;;;;;19.78;72.70;101192.28;5084957;28;20052;-59
2023/09/05 09:22:38;;;;;;;8.75;6.90;;;;;;;20.00;71.72;101190.66;5085809;28;20468;-59
2023/09/05 09:25:23;;;;;;;8.98;6.15;;;;;;;20.02;70.55;101191.44;5086350;28;20148;-60
2023/09/05 09:27:55;;;;;;;9.55;7.15;;;;;;;20.12;70.65;101190.25;5085837;28;20555;-60
2023/09/05 09:30:23;;;;;;;15.10;6.72;;;;;;;20.45;70.68;101193.50;5086356;28;20050;-59
2023/09/05 09:32:52;;;;;;;13.60;6.65;;;;;;;20.89;69.93;101193.56;5086057;28;20040;-60
2023/09/05 09:35:17;;;;;;;8.00;5.65;;;;;;;21.16;69.43;101182.84;5086242;28;20032;-62
2023/09/05 09:37:45;;;;;;;9.98;6.35;;;;;;;21.57;69.16;101178.50;5085893;28;20387;-60
2023/09/05 09:40:11;;;;;;;11.13;6.15;;;;;;;22.04;66.73;101187.13;5085963;28;20125;-60
2023/09/05 09:42:37;;;;;;;9.73;6.38;;;;;;;22.70;66.45;101187.66;5085657;28;20468;-60
2023/09/05 09:45:05;;;;;;;7.10;5.13;;;;;;;23.11;65.95;101188.41;5087201;28;20044;-60
2023/09/05 09:47:31;;;;;;;7.35;5.18;;;;;;;23.38;64.07;101182.66;5087187;28;20104;-61
2023/09/05 09:49:58;;;;;;;5.88;5.30;;;;;;;23.51;63.40;101175.81;5087473;28;20511;-60
2023/09/05 09:52:25;;;;;;;7.25;5.82;;;;;;;23.72;61.79;101177.47;5087764;28;20020;-59
2023/09/05 09:54:55;;;;;;;9.90;6.85;;;;;;;23.62;60.94;101171.78;5087979;28;20028;-61
2023/09/05 09:57:34;;;;;;;7.47;5.85;;;;;;;23.52;60.29;101166.09;5086333;28;20105;-60
2023/09/05 10:00:09;;;;;;;6.40;5.25;;;;;;;23.25;60.45;101172.69;5085806;28;20050;-60
2023/09/05 10:02:37;;;;;;;10.20;6.03;;;;;;;22.90;60.81;101170.00;5085580;28;20024;-60
2023/09/05 10:05:03;;;;;;;6.90;5.43;;;;;;;22.80;61.44;101168.69;5085622;28;20024;-58
2023/09/05 10:07:29;;;;;;;8.90;5.20;;;;;;;22.96;61.35;101169.69;5085434;28;20021;-61
2023/09/05 10:09:55;;;;;;;8.02;5.40;;;;;;;22.92;60.55;101164.63;5085513;28;20044;-59
2023/09/05 10:12:23;;;;;;;7.50;5.22;;;;;;;23.02;61.13;101164.09;5084944;28;20020;-59
2023/09/05 10:14:51;;;;;;;7.70;4.72;;;;;;;23.53;60.69;101151.94;5085371;28;20094;-60
2023/09/05 10:17:19;;;;;;;10.45;5.88;;;;;;;23.77;59.03;101152.41;5085448;28;20024;-59
2023/09/05 10:19:46;;;;;;;6.00;5.38;;;;;;;23.86;57.92;101159.03;5085488;28;20061;-59
2023/09/05 10:22:16;;;;;;;8.15;5.53;;;;;;;23.93;57.58;101148.94;5085091;28;20032;-60
2023/09/05 10:24:43;;;;;;;9.73;5.22;;;;;;;23.98;57.27;101149.56;5085361;28;20040;-60
2023/09/05 10:27:09;;;;;;;7.47;6.05;;;;;;;24.15;56.86;101145.19;5084843;28;20539;-60
2023/09/05 10:29:45;;;;;;;8.95;5.38;;;;;;;24.45;56.05;101135.63;5085160;28;20029;-60
2023/09/05 10:32:14;;;;;;;5.93;4.90;;;;;;;24.96;55.35;101146.03;5085125;28;20024;-58
2023/09/05 10:34:45;;;;;;;6.35;5.50;;;;;;;25.16;53.66;101141.34;5085202;28;20044;-60
2023/09/05 10:37:15;;;;;;;5.15;4.28;;;;;;;25.28;54.76;101141.56;5084995;28;20033;-60
2023/09/05 10:39:54;;;;;;;7.68;5.03;;;;;;;25.25;54.25;101147.94;5085067;28;20070;-60
2023/09/05 10:42:27;;;;;;;5.88;4.63;;;;;;;25.03;54.43;101141.25;5085120;28;20028;-59
2023/09/05 10:44:53;;;;;;;5.75;5.03;;;;;;;25.16;54.01;101141.34;5085061;28;20051;-59
2023/09/05 10:47:27;;;;;;;6.40;4.70;;;;;;;24.83;54.25;101140.56;5084958;28;20025;-60
2023/09/05 10:50:07;;;;;;;9.57;6.38;;;;;;;24.81;54.56;101141.59;5085161;28;20088;-59
2023/09/05 10:52:33;;;;;;;5.60;4.05;;;;;;;24.67;54.90;101135.25;5084850;28;20044;-59
2023/09/05 10:55:19;;;;;;;10.07;4.32;;;;;;;24.73;54.76;101142.88;5084798;28;20035;-61
2023/09/05 10:57:49;;;;;;;5.93;4.80;;;;;;;25.04;55.00;101134.97;5084964;28;20025;-60
2023/09/05 11:00:18;;;;;;;4.97;4.45;;;;;;;25.03;53.43;101127.09;5085094;28;20052;-60
2023/09/05 11:02:45;;;;;;;8.13;6.10;;;;;;;24.47;54.36;101142.53;5084899;28;20036;-61
2023/09/05 11:05:17;;;;;;;6.38;5.10;;;;;;;24.32;55.00;101140.75;5084926;28;20047;-59
2023/09/05 11:07:44;;;;;;;7.65;4.60;;;;;;;24.00;55.25;101129.13;5084501;28;20472;-60
2023/09/05 11:10:29;;;;;;;7.38;4.95;;;;;;;23.31;55.84;101120.34;5084556;28;20036;-59
2023/09/05 11:12:55;;;;;;;8.23;5.15;;;;;;;22.72;57.04;101129.38;5084694;28;20023;-59
2023/09/05 11:15:31;;;;;;;11.25;7.13;;;;;;;22.13;59.64;101127.66;5084653;28;20031;-59
2023/09/05 11:18:09;;;;;;;8.88;5.38;;;;;;;21.95;59.82;101124.91;5084325;28;20035;-58
2023/09/05 11:20:45;;;;;;;8.15;5.80;;;;;;;21.81;61.53;101122.03;5084544;28;20028;-59